CheckWX is a tool to help pilots better visualize weather data.  It is not intended as a substitute for an official pre-flight weather briefing.

23:41:06 UTC

GCTS TAF
Tenerife South Airport
Tenerife Island, Spain
TAF GCTS 012000Z 0121/0221 04008KT 9999 FEW035 TX23/0213Z TN16/0206Z BECMG 0209/0211 10013KT

Apr-1@
21:00 UTC

Apr-1 @ 21:00 UTC

Apr-2@
09:00 UTC

Apr-2 @ 09:00 UTC

TAF GCTS 012000Z 0121/0221 04008KT 9999 FEW035 TX23/0213Z TN16/0206Z
Wind
  • 040° at 8 KTS
Cloud Levels
  • Few at 3,500' AGL

Apr-2@
09:00 UTC

Apr-2 @ 09:00 UTC

Apr-2@
21:00 UTC

Apr-2 @ 21:00 UTC

BECMG 0209/0211 10013KT

Becoming

Becoming Conditions expected by Thu, Apr 2, 2020 @ 11:00 UTC

Wind
  • 100° at 13 KTS
Cloud Levels
  • Few at 3,500' AGL